Mercedes, Texas
Current Conditions -  °F | °C
As of 6:15 AM on Saturday 25 Oct 2014 (Local Time) from KT65 Reporting Station
Haze Haze  
Wind Chill: 62°   Ceiling: Unl
Heat Index: 62°   Visibility: 4mi
Dew Point: 60°   Wind: 0mph
Humidity: 93%   Direction: NA
Pressure: 30.13"   Gusts: NA
Location:  26.15°N, 97.91°W
Report Text: KT65 251115Z AUTO 00000KT 4SM BR CLR 17/16 A3013 RMK AO2 T01660155
Loading
Personal Weather Stations






























Interactive Weather Map
Tropical Storm Tracking
New forecast layout! Learn more

10-Day Weather Forecast

Advertisements
Track Severe Weather on mobile